sensor_id;sensor_type;location;lat;lon;timestamp;P1;durP1;ratioP1;P2;durP2;ratioP2
52354;SDS011;38286;51.156;17.038;2023-02-11T00:00:11;47.17;;;18.05;;
52354;SDS011;38286;51.156;17.038;2023-02-11T00:02:58;45.20;;;17.42;;
52354;SDS011;38286;51.156;17.038;2023-02-11T00:05:23;51.45;;;19.63;;
52354;SDS011;38286;51.156;17.038;2023-02-11T00:07:49;33.05;;;15.68;;
52354;SDS011;38286;51.156;17.038;2023-02-11T00:10:14;44.22;;;19.15;;
52354;SDS011;38286;51.156;17.038;2023-02-11T00:12:40;49.05;;;18.38;;
52354;SDS011;38286;51.156;17.038;2023-02-11T00:15:07;46.35;;;18.40;;
52354;SDS011;38286;51.156;17.038;2023-02-11T00:17:33;52.00;;;18.95;;
52354;SDS011;38286;51.156;17.038;2023-02-11T00:19:59;57.42;;;21.33;;
52354;SDS011;38286;51.156;17.038;2023-02-11T00:22:25;54.05;;;22.35;;
52354;SDS011;38286;51.156;17.038;2023-02-11T00:24:50;53.05;;;18.88;;
52354;SDS011;38286;51.156;17.038;2023-02-11T00:27:16;51.70;;;19.20;;
52354;SDS011;38286;51.156;17.038;2023-02-11T00:29:41;47.83;;;19.25;;
52354;SDS011;38286;51.156;17.038;2023-02-11T00:32:08;53.35;;;22.00;;
52354;SDS011;38286;51.156;17.038;2023-02-11T00:34:35;52.95;;;20.65;;
52354;SDS011;38286;51.156;17.038;2023-02-11T00:37:01;53.70;;;22.40;;
52354;SDS011;38286;51.156;17.038;2023-02-11T00:39:27;52.30;;;19.13;;
52354;SDS011;38286;51.156;17.038;2023-02-11T00:41:53;47.25;;;18.50;;
52354;SDS011;38286;51.156;17.038;2023-02-11T00:44:18;55.20;;;20.45;;
52354;SDS011;38286;51.156;17.038;2023-02-11T00:46:44;49.90;;;20.38;;
52354;SDS011;38286;51.156;17.038;2023-02-11T00:49:10;54.83;;;21.05;;
52354;SDS011;38286;51.156;17.038;2023-02-11T00:51:35;52.42;;;20.98;;
52354;SDS011;38286;51.156;17.038;2023-02-11T00:54:01;57.05;;;21.88;;
52354;SDS011;38286;51.156;17.038;2023-02-11T00:56:27;64.18;;;23.50;;
52354;SDS011;38286;51.156;17.038;2023-02-11T00:58:53;56.95;;;23.50;;
52354;SDS011;38286;51.156;17.038;2023-02-11T01:01:19;56.78;;;21.50;;
52354;SDS011;38286;51.156;17.038;2023-02-11T01:03:45;52.22;;;20.50;;
52354;SDS011;38286;51.156;17.038;2023-02-11T01:06:11;64.20;;;24.48;;
52354;SDS011;38286;51.156;17.038;2023-02-11T01:08:37;56.55;;;21.45;;
52354;SDS011;38286;51.156;17.038;2023-02-11T01:11:05;59.90;;;22.10;;
52354;SDS011;38286;51.156;17.038;2023-02-11T01:13:33;60.88;;;22.30;;
52354;SDS011;38286;51.156;17.038;2023-02-11T01:16:00;61.13;;;23.08;;
52354;SDS011;38286;51.156;17.038;2023-02-11T01:18:25;59.97;;;21.52;;
52354;SDS011;38286;51.156;17.038;2023-02-11T01:20:51;63.25;;;22.77;;
52354;SDS011;38286;51.156;17.038;2023-02-11T01:23:17;63.35;;;22.70;;
52354;SDS011;38286;51.156;17.038;2023-02-11T01:25:43;56.22;;;21.95;;
52354;SDS011;38286;51.156;17.038;2023-02-11T01:28:19;65.68;;;24.40;;
52354;SDS011;38286;51.156;17.038;2023-02-11T01:30:48;55.20;;;22.20;;
52354;SDS011;38286;51.156;17.038;2023-02-11T01:33:14;55.92;;;23.08;;
52354;SDS011;38286;51.156;17.038;2023-02-11T01:35:39;55.92;;;23.17;;
52354;SDS011;38286;51.156;17.038;2023-02-11T01:38:06;57.47;;;22.42;;
52354;SDS011;38286;51.156;17.038;2023-02-11T01:40:32;57.90;;;23.58;;
52354;SDS011;38286;51.156;17.038;2023-02-11T01:42:58;55.88;;;22.52;;
52354;SDS011;38286;51.156;17.038;2023-02-11T01:48:09;57.00;;;23.67;;
52354;SDS011;38286;51.156;17.038;2023-02-11T01:50:38;54.78;;;18.98;;
52354;SDS011;38286;51.156;17.038;2023-02-11T01:53:04;56.70;;;23.45;;
52354;SDS011;38286;51.156;17.038;2023-02-11T01:55:48;51.70;;;21.30;;
52354;SDS011;38286;51.156;17.038;2023-02-11T01:58:33;53.47;;;21.48;;
52354;SDS011;38286;51.156;17.038;2023-02-11T02:01:01;56.28;;;21.52;;
52354;SDS011;38286;51.156;17.038;2023-02-11T02:03:28;50.47;;;22.50;;
52354;SDS011;38286;51.156;17.038;2023-02-11T02:06:04;50.97;;;22.15;;
52354;SDS011;38286;51.156;17.038;2023-02-11T02:08:38;58.90;;;21.63;;
52354;SDS011;38286;51.156;17.038;2023-02-11T02:11:05;51.13;;;20.88;;
52354;SDS011;38286;51.156;17.038;2023-02-11T02:13:32;61.67;;;23.02;;
52354;SDS011;38286;51.156;17.038;2023-02-11T02:16:06;48.33;;;19.48;;
52354;SDS011;38286;51.156;17.038;2023-02-11T02:29:44;52.40;;;20.38;;
52354;SDS011;38286;51.156;17.038;2023-02-11T02:32:19;47.83;;;20.15;;
52354;SDS011;38286;51.156;17.038;2023-02-11T02:38:37;43.55;;;18.33;;
52354;SDS011;38286;51.156;17.038;2023-02-11T02:41:10;48.55;;;20.77;;
52354;SDS011;38286;51.156;17.038;2023-02-11T02:43:40;47.50;;;19.80;;
52354;SDS011;38286;51.156;17.038;2023-02-11T02:48:36;41.67;;;17.75;;
52354;SDS011;38286;51.156;17.038;2023-02-11T02:54:18;42.63;;;19.33;;
52354;SDS011;38286;51.156;17.038;2023-02-11T02:56:47;47.20;;;20.48;;
52354;SDS011;38286;51.156;17.038;2023-02-11T03:02:04;50.28;;;19.77;;
52354;SDS011;38286;51.156;17.038;2023-02-11T03:12:54;39.08;;;16.25;;
52354;SDS011;38286;51.156;17.038;2023-02-11T03:15:22;49.47;;;21.40;;
52354;SDS011;38286;51.156;17.038;2023-02-11T03:17:49;48.17;;;19.52;;
52354;SDS011;38286;51.156;17.038;2023-02-11T03:20:17;47.08;;;20.15;;
52354;SDS011;38286;51.156;17.038;2023-02-11T03:22:46;53.47;;;22.27;;
52354;SDS011;38286;51.156;17.038;2023-02-11T03:25:35;44.88;;;19.67;;
52354;SDS011;38286;51.156;17.038;2023-02-11T03:28:13;47.30;;;21.13;;
52354;SDS011;38286;51.156;17.038;2023-02-11T03:30:46;52.42;;;21.45;;
52354;SDS011;38286;51.156;17.038;2023-02-11T03:35:52;48.80;;;21.38;;
52354;SDS011;38286;51.156;17.038;2023-02-11T03:38:22;48.05;;;20.75;;
52354;SDS011;38286;51.156;17.038;2023-02-11T03:40:51;45.13;;;21.10;;
52354;SDS011;38286;51.156;17.038;2023-02-11T03:43:21;46.53;;;19.83;;
52354;SDS011;38286;51.156;17.038;2023-02-11T03:45:58;47.45;;;20.55;;
52354;SDS011;38286;51.156;17.038;2023-02-11T03:48:25;50.63;;;19.73;;
52354;SDS011;38286;51.156;17.038;2023-02-11T03:50:54;48.63;;;20.30;;
52354;SDS011;38286;51.156;17.038;2023-02-11T03:53:20;44.40;;;19.80;;
52354;SDS011;38286;51.156;17.038;2023-02-11T03:55:48;47.42;;;19.67;;
52354;SDS011;38286;51.156;17.038;2023-02-11T03:58:14;48.90;;;20.23;;
52354;SDS011;38286;51.156;17.038;2023-02-11T04:00:40;49.28;;;20.52;;
52354;SDS011;38286;51.156;17.038;2023-02-11T04:03:07;47.63;;;19.88;;
52354;SDS011;38286;51.156;17.038;2023-02-11T04:05:33;43.70;;;19.17;;
52354;SDS011;38286;51.156;17.038;2023-02-11T04:07:59;46.22;;;19.80;;
52354;SDS011;38286;51.156;17.038;2023-02-11T04:10:25;49.50;;;20.95;;
52354;SDS011;38286;51.156;17.038;2023-02-11T04:12:50;46.75;;;20.83;;
52354;SDS011;38286;51.156;17.038;2023-02-11T04:15:16;43.85;;;19.40;;
52354;SDS011;38286;51.156;17.038;2023-02-11T04:17:42;46.05;;;19.58;;
52354;SDS011;38286;51.156;17.038;2023-02-11T04:20:08;42.88;;;18.95;;
52354;SDS011;38286;51.156;17.038;2023-02-11T04:22:34;48.22;;;19.75;;
52354;SDS011;38286;51.156;17.038;2023-02-11T04:25:00;45.60;;;19.58;;
52354;SDS011;38286;51.156;17.038;2023-02-11T04:27:26;44.55;;;19.13;;
52354;SDS011;38286;51.156;17.038;2023-02-11T04:29:52;45.75;;;20.60;;
52354;SDS011;38286;51.156;17.038;2023-02-11T04:32:18;46.63;;;18.63;;
52354;SDS011;38286;51.156;17.038;2023-02-11T04:34:44;43.65;;;17.85;;
52354;SDS011;38286;51.156;17.038;2023-02-11T04:37:09;47.58;;;19.85;;
52354;SDS011;38286;51.156;17.038;2023-02-11T04:39:35;43.72;;;19.52;;
52354;SDS011;38286;51.156;17.038;2023-02-11T04:42:00;49.67;;;19.27;;
52354;SDS011;38286;51.156;17.038;2023-02-11T04:44:26;46.38;;;19.50;;
52354;SDS011;38286;51.156;17.038;2023-02-11T04:46:52;44.15;;;18.83;;
52354;SDS011;38286;51.156;17.038;2023-02-11T04:49:18;50.33;;;21.23;;
52354;SDS011;38286;51.156;17.038;2023-02-11T04:51:44;41.33;;;18.17;;
52354;SDS011;38286;51.156;17.038;2023-02-11T04:54:10;47.50;;;21.30;;
52354;SDS011;38286;51.156;17.038;2023-02-11T04:56:35;46.80;;;19.13;;
52354;SDS011;38286;51.156;17.038;2023-02-11T04:59:02;46.45;;;19.83;;
52354;SDS011;38286;51.156;17.038;2023-02-11T05:01:28;45.90;;;20.05;;
52354;SDS011;38286;51.156;17.038;2023-02-11T05:03:53;43.38;;;19.23;;
52354;SDS011;38286;51.156;17.038;2023-02-11T05:06:19;36.40;;;15.80;;
52354;SDS011;38286;51.156;17.038;2023-02-11T05:08:45;42.25;;;17.10;;
52354;SDS011;38286;51.156;17.038;2023-02-11T05:11:14;34.05;;;14.23;;
52354;SDS011;38286;51.156;17.038;2023-02-11T05:13:40;42.00;;;17.70;;
52354;SDS011;38286;51.156;17.038;2023-02-11T05:16:06;40.45;;;16.20;;
52354;SDS011;38286;51.156;17.038;2023-02-11T05:18:32;50.17;;;17.25;;
52354;SDS011;38286;51.156;17.038;2023-02-11T05:20:57;41.75;;;17.15;;
52354;SDS011;38286;51.156;17.038;2023-02-11T05:23:23;41.63;;;17.85;;
52354;SDS011;38286;51.156;17.038;2023-02-11T05:25:49;39.38;;;16.55;;
52354;SDS011;38286;51.156;17.038;2023-02-11T05:28:15;41.55;;;18.48;;
52354;SDS011;38286;51.156;17.038;2023-02-11T05:30:40;41.58;;;17.27;;
52354;SDS011;38286;51.156;17.038;2023-02-11T05:33:06;42.05;;;17.55;;
52354;SDS011;38286;51.156;17.038;2023-02-11T05:35:32;41.70;;;17.55;;
52354;SDS011;38286;51.156;17.038;2023-02-11T05:37:57;41.75;;;18.60;;
52354;SDS011;38286;51.156;17.038;2023-02-11T05:40:23;44.03;;;19.33;;
52354;SDS011;38286;51.156;17.038;2023-02-11T05:42:49;38.35;;;17.52;;
52354;SDS011;38286;51.156;17.038;2023-02-11T05:45:14;44.22;;;17.73;;
52354;SDS011;38286;51.156;17.038;2023-02-11T05:47:40;36.30;;;16.70;;
52354;SDS011;38286;51.156;17.038;2023-02-11T05:50:06;41.05;;;17.52;;
52354;SDS011;38286;51.156;17.038;2023-02-11T05:52:32;36.63;;;15.65;;
52354;SDS011;38286;51.156;17.038;2023-02-11T05:54:57;40.90;;;17.70;;
52354;SDS011;38286;51.156;17.038;2023-02-11T05:57:23;44.20;;;18.90;;
52354;SDS011;38286;51.156;17.038;2023-02-11T05:59:49;41.80;;;18.60;;
52354;SDS011;38286;51.156;17.038;2023-02-11T06:02:15;39.25;;;17.48;;
52354;SDS011;38286;51.156;17.038;2023-02-11T06:04:40;39.20;;;17.75;;
52354;SDS011;38286;51.156;17.038;2023-02-11T06:07:07;46.67;;;19.45;;
52354;SDS011;38286;51.156;17.038;2023-02-11T06:09:32;34.78;;;16.73;;
52354;SDS011;38286;51.156;17.038;2023-02-11T06:11:58;40.33;;;15.50;;
52354;SDS011;38286;51.156;17.038;2023-02-11T06:14:23;44.83;;;17.13;;
52354;SDS011;38286;51.156;17.038;2023-02-11T06:16:49;41.28;;;17.17;;
52354;SDS011;38286;51.156;17.038;2023-02-11T06:19:14;41.92;;;18.20;;
52354;SDS011;38286;51.156;17.038;2023-02-11T06:21:40;39.00;;;17.50;;
52354;SDS011;38286;51.156;17.038;2023-02-11T06:24:06;40.08;;;17.52;;
52354;SDS011;38286;51.156;17.038;2023-02-11T06:26:32;42.17;;;19.27;;
52354;SDS011;38286;51.156;17.038;2023-02-11T06:28:58;40.42;;;17.55;;
52354;SDS011;38286;51.156;17.038;2023-02-11T06:31:25;41.97;;;18.30;;
52354;SDS011;38286;51.156;17.038;2023-02-11T06:33:50;44.78;;;18.92;;
52354;SDS011;38286;51.156;17.038;2023-02-11T06:36:18;44.78;;;17.65;;
52354;SDS011;38286;51.156;17.038;2023-02-11T06:38:44;43.72;;;16.90;;
52354;SDS011;38286;51.156;17.038;2023-02-11T06:41:10;38.75;;;17.23;;
52354;SDS011;38286;51.156;17.038;2023-02-11T06:43:37;50.70;;;19.63;;
52354;SDS011;38286;51.156;17.038;2023-02-11T06:46:03;49.08;;;19.63;;
52354;SDS011;38286;51.156;17.038;2023-02-11T06:48:28;44.60;;;18.67;;
52354;SDS011;38286;51.156;17.038;2023-02-11T06:50:54;39.83;;;18.35;;
52354;SDS011;38286;51.156;17.038;2023-02-11T06:53:20;44.63;;;17.52;;
52354;SDS011;38286;51.156;17.038;2023-02-11T06:55:46;40.25;;;19.38;;
52354;SDS011;38286;51.156;17.038;2023-02-11T06:58:11;42.10;;;18.60;;
52354;SDS011;38286;51.156;17.038;2023-02-11T07:00:37;43.22;;;17.70;;
52354;SDS011;38286;51.156;17.038;2023-02-11T07:03:03;38.30;;;17.10;;
52354;SDS011;38286;51.156;17.038;2023-02-11T07:05:28;43.08;;;17.88;;
52354;SDS011;38286;51.156;17.038;2023-02-11T07:07:54;48.53;;;20.02;;
52354;SDS011;38286;51.156;17.038;2023-02-11T07:10:20;45.65;;;17.83;;
52354;SDS011;38286;51.156;17.038;2023-02-11T07:12:45;36.83;;;15.02;;
52354;SDS011;38286;51.156;17.038;2023-02-11T07:15:17;42.80;;;18.00;;
52354;SDS011;38286;51.156;17.038;2023-02-11T07:17:42;48.30;;;19.55;;
52354;SDS011;38286;51.156;17.038;2023-02-11T07:20:08;42.75;;;18.75;;
52354;SDS011;38286;51.156;17.038;2023-02-11T07:22:36;45.83;;;18.92;;
52354;SDS011;38286;51.156;17.038;2023-02-11T07:25:02;43.47;;;18.98;;
52354;SDS011;38286;51.156;17.038;2023-02-11T07:27:28;41.35;;;17.65;;
52354;SDS011;38286;51.156;17.038;2023-02-11T07:29:54;43.83;;;18.95;;
52354;SDS011;38286;51.156;17.038;2023-02-11T07:32:19;42.25;;;18.85;;
52354;SDS011;38286;51.156;17.038;2023-02-11T07:34:46;41.28;;;18.10;;
52354;SDS011;38286;51.156;17.038;2023-02-11T07:37:12;37.25;;;17.85;;
52354;SDS011;38286;51.156;17.038;2023-02-11T07:39:38;46.55;;;18.90;;
52354;SDS011;38286;51.156;17.038;2023-02-11T07:42:03;44.30;;;19.08;;
52354;SDS011;38286;51.156;17.038;2023-02-11T07:44:30;47.75;;;18.98;;
52354;SDS011;38286;51.156;17.038;2023-02-11T07:46:57;45.40;;;20.42;;
52354;SDS011;38286;51.156;17.038;2023-02-11T07:49:24;44.00;;;20.05;;
52354;SDS011;38286;51.156;17.038;2023-02-11T07:51:49;45.70;;;19.98;;
52354;SDS011;38286;51.156;17.038;2023-02-11T07:54:16;45.50;;;18.38;;
52354;SDS011;38286;51.156;17.038;2023-02-11T07:56:42;42.72;;;19.50;;
52354;SDS011;38286;51.156;17.038;2023-02-11T07:59:07;41.38;;;18.33;;
52354;SDS011;38286;51.156;17.038;2023-02-11T08:01:33;40.97;;;17.02;;
52354;SDS011;38286;51.156;17.038;2023-02-11T08:03:59;43.92;;;18.27;;
52354;SDS011;38286;51.156;17.038;2023-02-11T08:06:26;41.92;;;17.50;;
52354;SDS011;38286;51.156;17.038;2023-02-11T08:08:53;43.13;;;18.85;;
52354;SDS011;38286;51.156;17.038;2023-02-11T08:11:20;44.58;;;18.35;;
52354;SDS011;38286;51.156;17.038;2023-02-11T08:13:49;43.95;;;17.70;;
52354;SDS011;38286;51.156;17.038;2023-02-11T08:16:22;41.65;;;17.55;;
52354;SDS011;38286;51.156;17.038;2023-02-11T08:18:51;39.63;;;17.38;;
52354;SDS011;38286;51.156;17.038;2023-02-11T08:21:17;38.75;;;15.25;;
52354;SDS011;38286;51.156;17.038;2023-02-11T08:23:43;39.08;;;17.67;;
52354;SDS011;38286;51.156;17.038;2023-02-11T08:26:11;40.40;;;18.17;;
52354;SDS011;38286;51.156;17.038;2023-02-11T08:28:40;38.25;;;16.60;;
52354;SDS011;38286;51.156;17.038;2023-02-11T08:31:28;41.60;;;18.13;;
52354;SDS011;38286;51.156;17.038;2023-02-11T08:33:53;41.72;;;18.58;;
52354;SDS011;38286;51.156;17.038;2023-02-11T08:36:23;44.83;;;18.25;;
52354;SDS011;38286;51.156;17.038;2023-02-11T08:38:50;42.78;;;18.45;;
52354;SDS011;38286;51.156;17.038;2023-02-11T08:41:16;45.00;;;19.02;;
52354;SDS011;38286;51.156;17.038;2023-02-11T08:43:42;35.38;;;14.82;;
52354;SDS011;38286;51.156;17.038;2023-02-11T08:46:13;41.42;;;17.65;;
52354;SDS011;38286;51.156;17.038;2023-02-11T08:48:40;40.28;;;18.70;;
52354;SDS011;38286;51.156;17.038;2023-02-11T08:51:11;44.65;;;19.13;;
52354;SDS011;38286;51.156;17.038;2023-02-11T08:53:38;43.70;;;18.63;;
52354;SDS011;38286;51.156;17.038;2023-02-11T08:56:04;43.08;;;19.08;;
52354;SDS011;38286;51.156;17.038;2023-02-11T08:58:31;40.20;;;17.27;;
52354;SDS011;38286;51.156;17.038;2023-02-11T09:00:56;44.30;;;19.73;;
52354;SDS011;38286;51.156;17.038;2023-02-11T09:03:22;48.67;;;20.23;;
52354;SDS011;38286;51.156;17.038;2023-02-11T09:05:48;43.88;;;19.30;;
52354;SDS011;38286;51.156;17.038;2023-02-11T09:08:16;42.40;;;17.17;;
52354;SDS011;38286;51.156;17.038;2023-02-11T09:10:41;46.38;;;20.27;;
52354;SDS011;38286;51.156;17.038;2023-02-11T09:13:08;43.80;;;17.13;;
52354;SDS011;38286;51.156;17.038;2023-02-11T09:15:33;47.05;;;19.55;;
52354;SDS011;38286;51.156;17.038;2023-02-11T09:18:00;47.17;;;20.23;;
52354;SDS011;38286;51.156;17.038;2023-02-11T09:20:25;44.00;;;18.15;;
52354;SDS011;38286;51.156;17.038;2023-02-11T09:22:52;46.15;;;20.15;;
52354;SDS011;38286;51.156;17.038;2023-02-11T09:25:18;39.40;;;17.23;;
52354;SDS011;38286;51.156;17.038;2023-02-11T09:27:44;46.15;;;19.70;;
52354;SDS011;38286;51.156;17.038;2023-02-11T09:30:09;45.10;;;17.80;;
52354;SDS011;38286;51.156;17.038;2023-02-11T09:32:36;46.08;;;18.27;;
52354;SDS011;38286;51.156;17.038;2023-02-11T09:35:02;41.03;;;18.13;;
52354;SDS011;38286;51.156;17.038;2023-02-11T09:37:29;41.05;;;18.23;;
52354;SDS011;38286;51.156;17.038;2023-02-11T09:39:54;38.50;;;16.40;;
52354;SDS011;38286;51.156;17.038;2023-02-11T09:42:54;46.83;;;18.75;;
52354;SDS011;38286;51.156;17.038;2023-02-11T09:45:26;45.72;;;18.05;;
52354;SDS011;38286;51.156;17.038;2023-02-11T09:50:25;43.33;;;18.45;;
52354;SDS011;38286;51.156;17.038;2023-02-11T09:52:55;43.03;;;19.13;;
52354;SDS011;38286;51.156;17.038;2023-02-11T09:55:26;37.17;;;16.58;;
52354;SDS011;38286;51.156;17.038;2023-02-11T09:57:59;34.20;;;16.20;;
52354;SDS011;38286;51.156;17.038;2023-02-11T10:00:33;38.05;;;17.83;;
52354;SDS011;38286;51.156;17.038;2023-02-11T10:03:10;38.13;;;17.70;;
52354;SDS011;38286;51.156;17.038;2023-02-11T10:06:14;35.05;;;16.60;;
52354;SDS011;38286;51.156;17.038;2023-02-11T10:09:04;36.38;;;14.43;;
52354;SDS011;38286;51.156;17.038;2023-02-11T10:14:24;32.50;;;15.50;;
52354;SDS011;38286;51.156;17.038;2023-02-11T10:22:54;34.88;;;16.25;;
52354;SDS011;38286;51.156;17.038;2023-02-11T10:25:27;38.13;;;17.95;;
52354;SDS011;38286;51.156;17.038;2023-02-11T10:30:29;35.03;;;15.48;;
52354;SDS011;38286;51.156;17.038;2023-02-11T10:32:59;38.67;;;15.52;;
52354;SDS011;38286;51.156;17.038;2023-02-11T10:35:27;36.08;;;16.40;;
52354;SDS011;38286;51.156;17.038;2023-02-11T10:37:53;39.40;;;17.40;;
52354;SDS011;38286;51.156;17.038;2023-02-11T10:40:24;38.20;;;16.90;;
52354;SDS011;38286;51.156;17.038;2023-02-11T10:42:52;39.08;;;17.70;;
52354;SDS011;38286;51.156;17.038;2023-02-11T10:45:22;40.53;;;18.20;;
52354;SDS011;38286;51.156;17.038;2023-02-11T10:47:50;34.78;;;16.30;;
52354;SDS011;38286;51.156;17.038;2023-02-11T10:52:46;39.85;;;18.42;;
52354;SDS011;38286;51.156;17.038;2023-02-11T10:57:41;35.95;;;18.17;;
52354;SDS011;38286;51.156;17.038;2023-02-11T11:00:22;42.83;;;18.65;;
52354;SDS011;38286;51.156;17.038;2023-02-11T11:03:33;38.90;;;17.58;;
52354;SDS011;38286;51.156;17.038;2023-02-11T11:05:46;39.83;;;17.85;;
52354;SDS011;38286;51.156;17.038;2023-02-11T11:08:13;38.65;;;18.50;;
52354;SDS011;38286;51.156;17.038;2023-02-11T11:13:32;43.22;;;19.30;;
52354;SDS011;38286;51.156;17.038;2023-02-11T11:18:37;36.63;;;16.52;;
52354;SDS011;38286;51.156;17.038;2023-02-11T11:21:04;40.60;;;18.27;;
52354;SDS011;38286;51.156;17.038;2023-02-11T11:23:31;42.53;;;18.13;;
52354;SDS011;38286;51.156;17.038;2023-02-11T11:28:28;38.15;;;17.67;;
52354;SDS011;38286;51.156;17.038;2023-02-11T11:30:57;40.78;;;18.38;;
52354;SDS011;38286;51.156;17.038;2023-02-11T11:33:25;42.58;;;18.38;;
52354;SDS011;38286;51.156;17.038;2023-02-11T11:38:31;45.55;;;18.85;;
52354;SDS011;38286;51.156;17.038;2023-02-11T11:46:46;37.83;;;17.95;;
52354;SDS011;38286;51.156;17.038;2023-02-11T11:49:19;38.75;;;17.83;;
52354;SDS011;38286;51.156;17.038;2023-02-11T11:51:52;37.80;;;18.08;;
52354;SDS011;38286;51.156;17.038;2023-02-11T11:54:24;40.53;;;18.63;;
52354;SDS011;38286;51.156;17.038;2023-02-11T11:56:54;39.22;;;19.17;;
52354;SDS011;38286;51.156;17.038;2023-02-11T11:59:23;38.63;;;16.65;;
52354;SDS011;38286;51.156;17.038;2023-02-11T12:09:44;44.97;;;19.52;;
52354;SDS011;38286;51.156;17.038;2023-02-11T12:12:38;33.17;;;14.63;;
52354;SDS011;38286;51.156;17.038;2023-02-11T12:15:23;45.13;;;17.40;;
52354;SDS011;38286;51.156;17.038;2023-02-11T12:23:31;43.70;;;18.98;;
52354;SDS011;38286;51.156;17.038;2023-02-11T12:26:23;39.40;;;17.42;;
52354;SDS011;38286;51.156;17.038;2023-02-11T12:29:05;43.38;;;17.02;;
52354;SDS011;38286;51.156;17.038;2023-02-11T12:31:41;36.67;;;17.55;;
52354;SDS011;38286;51.156;17.038;2023-02-11T12:36:59;38.75;;;18.10;;
52354;SDS011;38286;51.156;17.038;2023-02-11T12:43:23;38.97;;;16.17;;
52354;SDS011;38286;51.156;17.038;2023-02-11T12:46:03;40.30;;;17.50;;
52354;SDS011;38286;51.156;17.038;2023-02-11T12:54:37;35.78;;;17.00;;
52354;SDS011;38286;51.156;17.038;2023-02-11T12:57:14;37.25;;;17.80;;
52354;SDS011;38286;51.156;17.038;2023-02-11T12:59:59;37.28;;;17.35;;
52354;SDS011;38286;51.156;17.038;2023-02-11T13:02:40;37.10;;;18.73;;
52354;SDS011;38286;51.156;17.038;2023-02-11T13:07:45;41.50;;;17.23;;
52354;SDS011;38286;51.156;17.038;2023-02-11T13:12:44;38.13;;;18.05;;
52354;SDS011;38286;51.156;17.038;2023-02-11T13:15:29;37.13;;;18.15;;
52354;SDS011;38286;51.156;17.038;2023-02-11T13:26:38;43.45;;;18.58;;
52354;SDS011;38286;51.156;17.038;2023-02-11T13:31:35;46.90;;;18.45;;
52354;SDS011;38286;51.156;17.038;2023-02-11T13:34:01;39.67;;;17.73;;
52354;SDS011;38286;51.156;17.038;2023-02-11T13:36:28;35.30;;;17.52;;
52354;SDS011;38286;51.156;17.038;2023-02-11T13:38:58;37.45;;;18.15;;
52354;SDS011;38286;51.156;17.038;2023-02-11T13:41:29;36.20;;;16.98;;
52354;SDS011;38286;51.156;17.038;2023-02-11T13:44:03;37.67;;;17.92;;
52354;SDS011;38286;51.156;17.038;2023-02-11T13:46:54;39.28;;;17.65;;
52354;SDS011;38286;51.156;17.038;2023-02-11T13:49:25;40.13;;;17.10;;
52354;SDS011;38286;51.156;17.038;2023-02-11T13:51:54;37.35;;;17.50;;
52354;SDS011;38286;51.156;17.038;2023-02-11T13:54:25;35.83;;;16.45;;
52354;SDS011;38286;51.156;17.038;2023-02-11T13:59:45;38.05;;;16.48;;
52354;SDS011;38286;51.156;17.038;2023-02-11T14:13:28;40.40;;;17.33;;
52354;SDS011;38286;51.156;17.038;2023-02-11T14:23:47;36.95;;;16.58;;
52354;SDS011;38286;51.156;17.038;2023-02-11T14:28:46;38.13;;;17.05;;
52354;SDS011;38286;51.156;17.038;2023-02-11T14:31:19;35.95;;;16.88;;
52354;SDS011;38286;51.156;17.038;2023-02-11T14:36:22;36.25;;;16.80;;
52354;SDS011;38286;51.156;17.038;2023-02-11T14:39:11;40.15;;;18.27;;
52354;SDS011;38286;51.156;17.038;2023-02-11T14:41:40;34.42;;;16.27;;
52354;SDS011;38286;51.156;17.038;2023-02-11T14:44:14;34.63;;;16.65;;
52354;SDS011;38286;51.156;17.038;2023-02-11T14:46:48;33.67;;;16.00;;
52354;SDS011;38286;51.156;17.038;2023-02-11T14:49:26;35.85;;;16.75;;
52354;SDS011;38286;51.156;17.038;2023-02-11T14:51:55;32.70;;;15.60;;
52354;SDS011;38286;51.156;17.038;2023-02-11T14:54:25;32.67;;;16.10;;
52354;SDS011;38286;51.156;17.038;2023-02-11T14:57:05;36.90;;;17.05;;
52354;SDS011;38286;51.156;17.038;2023-02-11T14:59:57;37.33;;;16.90;;
52354;SDS011;38286;51.156;17.038;2023-02-11T15:02:34;32.08;;;16.90;;
52354;SDS011;38286;51.156;17.038;2023-02-11T15:05:17;39.67;;;17.58;;
52354;SDS011;38286;51.156;17.038;2023-02-11T15:07:47;39.45;;;16.45;;
52354;SDS011;38286;51.156;17.038;2023-02-11T15:10:16;36.17;;;16.85;;
52354;SDS011;38286;51.156;17.038;2023-02-11T15:12:52;36.72;;;17.63;;
52354;SDS011;38286;51.156;17.038;2023-02-11T15:15:18;36.83;;;17.65;;
52354;SDS011;38286;51.156;17.038;2023-02-11T15:17:44;39.88;;;17.60;;
52354;SDS011;38286;51.156;17.038;2023-02-11T15:20:26;43.28;;;18.77;;
52354;SDS011;38286;51.156;17.038;2023-02-11T15:22:57;42.40;;;16.80;;
52354;SDS011;38286;51.156;17.038;2023-02-11T15:25:24;34.53;;;16.88;;
52354;SDS011;38286;51.156;17.038;2023-02-11T15:27:54;39.13;;;18.70;;
52354;SDS011;38286;51.156;17.038;2023-02-11T15:32:47;37.88;;;17.42;;
52354;SDS011;38286;51.156;17.038;2023-02-11T15:35:14;36.70;;;17.48;;
52354;SDS011;38286;51.156;17.038;2023-02-11T15:37:40;34.95;;;17.08;;
52354;SDS011;38286;51.156;17.038;2023-02-11T15:40:16;38.42;;;18.48;;
52354;SDS011;38286;51.156;17.038;2023-02-11T15:43:02;34.70;;;17.08;;
52354;SDS011;38286;51.156;17.038;2023-02-11T15:45:31;35.58;;;16.92;;
52354;SDS011;38286;51.156;17.038;2023-02-11T15:48:00;39.65;;;17.05;;
52354;SDS011;38286;51.156;17.038;2023-02-11T15:50:32;41.65;;;18.75;;
52354;SDS011;38286;51.156;17.038;2023-02-11T15:53:12;40.28;;;18.80;;
52354;SDS011;38286;51.156;17.038;2023-02-11T15:55:49;39.42;;;18.40;;
52354;SDS011;38286;51.156;17.038;2023-02-11T15:58:17;40.33;;;18.70;;
52354;SDS011;38286;51.156;17.038;2023-02-11T16:00:46;37.70;;;17.83;;
52354;SDS011;38286;51.156;17.038;2023-02-11T16:03:21;42.67;;;18.40;;
52354;SDS011;38286;51.156;17.038;2023-02-11T16:05:47;37.90;;;18.38;;
52354;SDS011;38286;51.156;17.038;2023-02-11T16:08:21;38.25;;;17.30;;
52354;SDS011;38286;51.156;17.038;2023-02-11T16:10:52;41.63;;;18.70;;
52354;SDS011;38286;51.156;17.038;2023-02-11T16:13:42;41.00;;;18.53;;
52354;SDS011;38286;51.156;17.038;2023-02-11T16:18:58;39.38;;;18.20;;
52354;SDS011;38286;51.156;17.038;2023-02-11T16:21:27;35.75;;;16.80;;
52354;SDS011;38286;51.156;17.038;2023-02-11T16:23:57;35.88;;;17.02;;
52354;SDS011;38286;51.156;17.038;2023-02-11T16:26:28;38.78;;;16.65;;
52354;SDS011;38286;51.156;17.038;2023-02-11T16:29:03;33.55;;;16.42;;
52354;SDS011;38286;51.156;17.038;2023-02-11T16:31:34;35.08;;;17.20;;
52354;SDS011;38286;51.156;17.038;2023-02-11T16:34:14;37.10;;;18.57;;
52354;SDS011;38286;51.156;17.038;2023-02-11T16:36:40;38.47;;;17.80;;
52354;SDS011;38286;51.156;17.038;2023-02-11T16:39:07;35.35;;;17.38;;
52354;SDS011;38286;51.156;17.038;2023-02-11T16:41:32;35.38;;;17.02;;
52354;SDS011;38286;51.156;17.038;2023-02-11T16:43:58;40.10;;;18.75;;
52354;SDS011;38286;51.156;17.038;2023-02-11T16:46:24;36.13;;;17.85;;